Henrietta, North Carolina
Current Conditions -  °F | °C
As of 2:35 PM on Friday 24 Oct 2014 (Local Time) from KEHO Reporting Station
Clear Clear  
Wind Chill: 64°   Ceiling: Unl
Heat Index: 64°   Visibility: 10mi
Dew Point: 42°   Wind: 7mph
Humidity: 45%   Direction: 160°SSE
Pressure: 30.02"   Gusts: NA
Location:  35.26°N, 81.8°W
Report Text: KEHO 241835Z AUTO 16006KT 10SM CLR 18/06 A3002 RMK AO2 T01770056
Loading
Personal Weather Stations






























Interactive Weather Map
Tropical Storm Tracking
New forecast layout! Learn more

10-Day Weather Forecast

Advertisements
Track Severe Weather on mobile